createdAt,value
2022-09-04T00:01:12.431Z,2.20
2022-09-04T00:04:41.284Z,2.80
2022-09-04T00:08:00.997Z,2.50
2022-09-04T00:11:13.095Z,2.30
2022-09-04T00:14:20.169Z,2.67
2022-09-04T00:17:35.523Z,2.40
2022-09-04T00:20:40.483Z,2.13
2022-09-04T00:23:53.683Z,3.67
2022-09-04T00:27:11.283Z,2.43
2022-09-04T00:30:20.405Z,4.23
2022-09-04T00:33:59.528Z,2.37
2022-09-04T00:37:06.025Z,3.43
2022-09-04T00:40:19.475Z,3.80
2022-09-04T00:43:23.822Z,3.30
2022-09-04T00:47:02.448Z,2.83
2022-09-04T00:50:07.546Z,3.90
2022-09-04T00:53:26.153Z,4.20
2022-09-04T00:56:49.802Z,2.80
2022-09-04T01:04:12.961Z,3.07
2022-09-04T01:07:57.343Z,2.57
2022-09-04T01:11:33.900Z,3.77
2022-09-04T01:15:00.493Z,3.17
2022-09-04T01:18:12.834Z,5.50
2022-09-04T01:21:39.149Z,2.40
2022-09-04T01:25:05.773Z,4.37
2022-09-04T01:28:22.361Z,4.00
2022-09-04T01:31:44.354Z,4.93
2022-09-04T01:35:16.528Z,6.30
2022-09-04T01:38:25.044Z,3.50
2022-09-04T01:41:39.020Z,3.60
2022-09-04T01:44:40.828Z,6.17
2022-09-04T01:47:48.211Z,4.00
2022-09-04T01:50:58.169Z,2.80
2022-09-04T01:54:35.149Z,2.60
2022-09-04T01:57:55.135Z,2.83
2022-09-04T02:01:19.124Z,2.23
2022-09-04T02:04:44.789Z,4.23
2022-09-04T02:07:58.906Z,3.50
2022-09-04T02:11:28.805Z,3.40
2022-09-04T02:14:51.060Z,2.40
2022-09-04T02:18:21.443Z,2.67
2022-09-04T02:22:03.565Z,4.10
2022-09-04T02:25:27.382Z,4.07
2022-09-04T02:28:40.705Z,3.00
2022-09-04T02:32:07.459Z,2.43
2022-09-04T02:35:22.529Z,3.70
2022-09-04T02:38:43.222Z,2.37
2022-09-04T02:41:50.791Z,3.13
2022-09-04T02:45:05.590Z,2.73
2022-09-04T02:48:42.703Z,1.97
2022-09-04T02:51:53.232Z,5.40
2022-09-04T02:55:17.861Z,3.80
2022-09-04T02:58:57.641Z,1.87
2022-09-04T03:02:05.373Z,3.20
2022-09-04T03:05:20.784Z,3.40
2022-09-04T03:08:30.305Z,3.47
2022-09-04T03:11:45.908Z,4.40
2022-09-04T03:14:54.362Z,5.50
2022-09-04T03:18:06.038Z,4.23
2022-09-04T03:21:16.473Z,3.27
2022-09-04T03:24:26.167Z,3.90
2022-09-04T03:27:31.057Z,2.83
2022-09-04T03:30:35.286Z,4.27
2022-09-04T03:33:43.447Z,3.37
2022-09-04T03:37:02.890Z,5.07
2022-09-04T03:40:19.857Z,3.53
2022-09-04T03:43:24.606Z,6.80
2022-09-04T03:46:32.306Z,4.43
2022-09-04T03:49:52.905Z,3.23
2022-09-04T03:53:32.564Z,4.20
2022-09-04T03:56:57.228Z,5.23
2022-09-04T04:00:20.395Z,6.27
2022-09-04T04:03:47.807Z,5.60
2022-09-04T04:07:08.333Z,3.40
2022-09-04T04:10:19.615Z,3.13
2022-09-04T04:13:35.991Z,2.97
2022-09-04T04:17:00.017Z,3.17
2022-09-04T04:20:27.009Z,8.10
2022-09-04T04:23:52.064Z,3.70
2022-09-04T04:27:08.970Z,12.23
2022-09-04T04:30:18.908Z,11.47
2022-09-04T04:33:32.511Z,7.90
2022-09-04T04:36:48.789Z,10.07
2022-09-04T04:40:06.436Z,12.73
2022-09-04T04:43:33.347Z,20.43
2022-09-04T04:46:53.476Z,36.00
2022-09-04T04:50:11.473Z,55.47
2022-09-04T04:53:41.829Z,45.90
2022-09-04T04:57:09.022Z,65.00
2022-09-04T05:00:16.078Z,51.57
2022-09-04T05:03:44.273Z,61.33
2022-09-04T05:06:58.368Z,63.60
2022-09-04T05:10:39.717Z,61.63
2022-09-04T05:14:18.896Z,51.83
2022-09-04T05:17:45.027Z,53.30
2022-09-04T05:21:29.841Z,59.63
2022-09-04T05:24:57.580Z,58.47
2022-09-04T05:28:05.740Z,78.93
2022-09-04T05:31:32.960Z,68.30
2022-09-04T05:34:54.017Z,58.03
2022-09-04T05:38:07.311Z,66.40
2022-09-04T05:41:51.960Z,79.90
2022-09-04T05:45:25.737Z,64.30
2022-09-04T05:48:39.216Z,50.83
2022-09-04T05:52:00.168Z,44.67
2022-09-04T05:55:10.959Z,54.40
2022-09-04T05:58:41.508Z,28.67
2022-09-04T06:02:06.737Z,20.97
2022-09-04T06:05:32.391Z,29.80
2022-09-04T06:08:44.697Z,40.00
2022-09-04T06:12:01.541Z,50.67
2022-09-04T06:15:15.894Z,60.97
2022-09-04T06:18:56.488Z,34.83
2022-09-04T06:22:30.136Z,18.93
2022-09-04T06:25:43.827Z,17.97
2022-09-04T06:29:07.392Z,32.47
2022-09-04T06:32:20.990Z,23.17
2022-09-04T06:35:54.685Z,24.40
2022-09-04T06:39:24.024Z,24.03
2022-09-04T06:42:52.987Z,27.80
2022-09-04T06:46:10.889Z,23.50
2022-09-04T06:49:33.042Z,23.80
2022-09-04T06:52:59.094Z,24.77
2022-09-04T06:56:21.380Z,24.30
2022-09-04T06:59:53.256Z,17.60
2022-09-04T07:03:23.266Z,22.27
2022-09-04T07:06:47.365Z,28.27
2022-09-04T07:10:01.062Z,26.63
2022-09-04T07:13:21.500Z,26.40
2022-09-04T07:16:58.415Z,22.43
2022-09-04T07:20:33.197Z,26.83
2022-09-04T07:24:03.965Z,28.90
2022-09-04T07:27:18.687Z,25.90
2022-09-04T07:30:22.445Z,26.03
2022-09-04T07:33:54.852Z,26.33
2022-09-04T07:37:12.612Z,27.00
2022-09-04T07:40:24.874Z,28.43
2022-09-04T07:43:54.505Z,30.90
2022-09-04T07:47:12.206Z,29.70
2022-09-04T07:50:19.698Z,32.40
2022-09-04T07:53:46.723Z,29.83
2022-09-04T07:57:31.926Z,29.97
2022-09-04T08:01:09.311Z,28.57
2022-09-04T08:04:28.838Z,30.70
2022-09-04T08:07:42.210Z,27.30
2022-09-04T08:11:21.516Z,29.77
2022-09-04T08:14:27.986Z,26.33
2022-09-04T08:17:45.153Z,34.17
2022-09-04T08:21:34.117Z,28.80
2022-09-04T08:24:57.676Z,31.43
2022-09-04T08:28:27.843Z,32.97
2022-09-04T08:31:48.785Z,34.07
2022-09-04T08:35:10.220Z,29.90
2022-09-04T08:39:06.932Z,30.30
2022-09-04T08:42:27.705Z,33.93
2022-09-04T08:45:43.303Z,33.17
2022-09-04T08:49:10.799Z,29.67
2022-09-04T08:52:52.563Z,35.67
2022-09-04T08:56:06.420Z,38.30
2022-09-04T08:59:41.360Z,38.13
2022-09-04T09:03:30.284Z,34.60
2022-09-04T09:07:04.297Z,40.10
2022-09-04T09:10:37.314Z,40.27
2022-09-04T09:14:02.083Z,40.63
2022-09-04T09:17:16.856Z,41.97
2022-09-04T09:20:38.240Z,37.20
2022-09-04T09:23:48.569Z,36.43
2022-09-04T09:27:09.069Z,38.23
2022-09-04T09:30:20.853Z,36.33
2022-09-04T09:33:43.556Z,40.40
2022-09-04T09:37:08.980Z,41.17
2022-09-04T09:40:20.532Z,46.30
2022-09-04T09:43:42.275Z,40.37
2022-09-04T09:47:10.179Z,41.77
2022-09-04T09:50:44.511Z,42.90
2022-09-04T09:54:05.044Z,42.07
2022-09-04T09:57:50.587Z,35.80
2022-09-04T10:01:08.483Z,40.27
2022-09-04T10:04:40.047Z,31.90
2022-09-04T10:08:14.187Z,34.03
2022-09-04T10:11:33.830Z,28.93
2022-09-04T10:15:13.115Z,29.50
2022-09-04T10:18:44.386Z,30.20
2022-09-04T10:22:18.261Z,29.87
2022-09-04T10:25:45.337Z,25.50
2022-09-04T10:29:29.154Z,24.20
2022-09-04T10:32:42.816Z,24.10
2022-09-04T10:36:16.448Z,22.13
2022-09-04T10:40:01.076Z,25.33
2022-09-04T10:43:44.226Z,18.07
2022-09-04T10:46:57.418Z,23.53
2022-09-04T10:50:24.016Z,23.03
2022-09-04T10:54:08.295Z,20.33
2022-09-04T10:57:45.423Z,22.63
2022-09-04T11:01:18.639Z,21.97
2022-09-04T11:04:45.668Z,17.30
2022-09-04T11:08:22.941Z,19.83
2022-09-04T11:11:59.164Z,15.00
2022-09-04T11:15:23.398Z,14.43
2022-09-04T11:18:46.992Z,14.23
2022-09-04T11:22:14.639Z,16.80
2022-09-04T11:25:49.372Z,13.33
2022-09-04T11:29:17.090Z,13.00
2022-09-04T11:32:36.698Z,11.93
2022-09-04T11:36:07.678Z,10.30
2022-09-04T11:39:38.828Z,10.33
2022-09-04T11:43:14.258Z,11.10
2022-09-04T11:46:47.409Z,9.33
2022-09-04T11:50:09.526Z,11.23
2022-09-04T11:53:19.989Z,8.40
2022-09-04T11:56:43.019Z,7.50
2022-09-04T12:00:01.673Z,8.63
2022-09-04T12:03:29.646Z,6.10
2022-09-04T12:06:55.523Z,5.33
2022-09-04T12:10:17.985Z,6.40
2022-09-04T12:13:52.625Z,5.20
2022-09-04T12:17:19.003Z,5.20
2022-09-04T12:20:37.276Z,4.30
2022-09-04T12:24:13.844Z,4.63
2022-09-04T12:27:30.898Z,4.13
2022-09-04T12:31:05.643Z,2.90
2022-09-04T12:34:37.379Z,3.90
2022-09-04T12:38:13.196Z,3.30
2022-09-04T12:41:19.529Z,3.80
2022-09-04T12:44:50.291Z,3.90
2022-09-04T12:48:11.069Z,3.97
2022-09-04T12:51:21.183Z,4.40
2022-09-04T12:54:33.343Z,3.60
2022-09-04T12:57:55.543Z,3.60
2022-09-04T13:01:23.170Z,4.13
2022-09-04T13:04:57.418Z,4.07
2022-09-04T13:08:39.353Z,5.77
2022-09-04T13:12:26.667Z,4.10
2022-09-04T13:15:57.999Z,3.47
2022-09-04T13:19:19.983Z,4.03
2022-09-04T13:22:46.167Z,3.67
2022-09-04T13:25:53.754Z,3.67
2022-09-04T13:29:16.333Z,3.60
2022-09-04T13:32:56.151Z,4.20
2022-09-04T13:36:24.539Z,3.70
2022-09-04T13:39:32.075Z,3.27
2022-09-04T13:43:08.777Z,3.50
2022-09-04T13:46:16.763Z,3.70
2022-09-04T13:49:37.046Z,3.20
2022-09-04T13:52:55.731Z,3.20
2022-09-04T13:56:06.566Z,3.43
2022-09-04T13:59:14.940Z,3.73
2022-09-04T14:02:25.061Z,3.57
2022-09-04T14:05:31.463Z,3.70
2022-09-04T14:08:35.327Z,4.07
2022-09-04T14:11:40.490Z,5.27
2022-09-04T14:14:42.265Z,4.80
2022-09-04T14:17:59.970Z,3.73
2022-09-04T14:21:37.349Z,4.03
2022-09-04T14:24:48.157Z,4.10
2022-09-04T14:28:14.952Z,4.40
2022-09-04T14:31:22.688Z,4.63
2022-09-04T14:34:31.863Z,5.00
2022-09-04T14:37:50.925Z,4.60
2022-09-04T14:41:36.068Z,4.10
2022-09-04T14:45:12.783Z,4.23
2022-09-04T14:48:17.622Z,4.57
2022-09-04T14:51:22.259Z,4.70
2022-09-04T14:54:28.316Z,4.90
2022-09-04T14:57:33.505Z,6.00
2022-09-04T15:01:01.022Z,7.30
2022-09-04T15:04:18.911Z,4.40
2022-09-04T15:07:42.627Z,7.35
2022-09-04T15:10:50.416Z,7.35
2022-09-04T15:14:05.168Z,4.95
2022-09-04T15:17:12.906Z,7.50
2022-09-04T15:20:23.946Z,6.43
2022-09-04T15:23:54.531Z,4.10
2022-09-04T15:27:16.185Z,4.15
2022-09-04T15:30:19.918Z,3.67
2022-09-04T15:33:21.593Z,3.80
2022-09-04T15:36:24.643Z,3.70
2022-09-04T15:39:39.899Z,3.90
2022-09-04T15:42:52.072Z,3.33
2022-09-04T15:45:53.703Z,3.38
2022-09-04T15:49:33.637Z,3.70
2022-09-04T15:52:52.453Z,4.43
2022-09-04T15:56:09.294Z,4.50
2022-09-04T15:59:30.740Z,4.15
2022-09-04T16:02:43.804Z,3.80
2022-09-04T16:05:54.631Z,4.18
2022-09-04T16:09:08.184Z,3.25
2022-09-04T16:12:21.871Z,3.60
2022-09-04T16:15:30.585Z,4.57
2022-09-04T16:18:38.276Z,6.15
2022-09-04T16:21:49.789Z,3.65
2022-09-04T16:24:56.938Z,3.53
2022-09-04T16:28:05.906Z,4.40
2022-09-04T16:31:14.410Z,5.97
2022-09-04T16:34:47.762Z,5.15
2022-09-04T16:37:57.350Z,4.53
2022-09-04T16:41:08.389Z,3.97
2022-09-04T16:44:26.503Z,4.00
2022-09-04T16:47:40.661Z,4.43
2022-09-04T16:50:54.391Z,4.18
2022-09-04T16:54:32.054Z,4.30
2022-09-04T16:57:46.706Z,3.85
2022-09-04T17:01:00.401Z,3.90
2022-09-04T17:04:31.069Z,3.72
2022-09-04T17:07:40.685Z,4.47
2022-09-04T17:11:24.178Z,3.65
2022-09-04T17:14:31.507Z,4.00
2022-09-04T17:17:36.699Z,3.70
2022-09-04T17:25:32.724Z,4.10
2022-09-04T17:29:13.816Z,3.70
2022-09-04T17:29:15.596Z,4.10
2022-09-04T17:32:00.520Z,4.53
2022-09-04T17:40:39.132Z,4.07
2022-09-04T17:40:49.395Z,4.15
2022-09-04T17:43:22.851Z,4.00
2022-09-04T17:46:49.144Z,4.18
2022-09-04T17:49:53.558Z,4.32
2022-09-04T17:53:01.871Z,4.57
2022-09-04T17:56:48.052Z,4.10
2022-09-04T18:00:00.549Z,4.32
2022-09-04T18:03:10.802Z,4.53
2022-09-04T18:06:19.190Z,4.43
2022-09-04T18:09:27.005Z,6.07
2022-09-04T18:12:42.987Z,12.13
2022-09-04T18:15:50.554Z,13.17
2022-09-04T18:18:54.919Z,27.53
2022-09-04T18:22:25.388Z,22.30
2022-09-04T18:25:33.706Z,14.33
2022-09-04T18:28:48.623Z,22.70
2022-09-04T18:37:12.273Z,14.17
2022-09-04T18:37:21.163Z,7.13
2022-09-04T18:39:13.094Z,15.83
2022-09-04T18:50:21.096Z,11.93
2022-09-04T18:50:28.383Z,15.73
2022-09-04T18:50:46.761Z,9.40
2022-09-04T18:53:12.964Z,7.83
2022-09-04T18:56:37.248Z,5.43
2022-09-04T18:59:43.913Z,7.67
2022-09-04T19:03:07.142Z,10.30
2022-09-04T19:06:36.357Z,9.57
2022-09-04T19:10:18.393Z,9.97
2022-09-04T19:13:29.914Z,9.00
2022-09-04T19:16:42.648Z,20.83
2022-09-04T19:19:56.617Z,10.93
2022-09-04T19:23:04.645Z,18.10
2022-09-04T19:26:30.225Z,12.03
2022-09-04T19:29:46.038Z,26.57
2022-09-04T19:33:06.832Z,13.80
2022-09-04T19:36:20.759Z,15.60
2022-09-04T19:46:05.849Z,14.53
2022-09-04T19:46:19.915Z,11.50
2022-09-04T19:47:02.845Z,13.73
2022-09-04T19:53:23.368Z,9.90
2022-09-04T19:53:57.528Z,9.00
2022-09-04T19:57:32.770Z,14.23
2022-09-04T20:00:45.178Z,12.07
2022-09-04T20:03:53.269Z,13.60
2022-09-04T20:07:02.497Z,8.37
2022-09-04T20:10:37.255Z,7.17
2022-09-04T20:13:46.677Z,13.47
2022-09-04T20:17:29.057Z,9.53
2022-09-04T20:20:44.957Z,13.93
2022-09-04T20:23:53.797Z,7.37
2022-09-04T20:26:59.572Z,8.60
2022-09-04T20:30:08.113Z,7.03
2022-09-04T20:33:25.858Z,6.97
2022-09-04T20:36:43.091Z,8.00
2022-09-04T20:40:04.386Z,8.07
2022-09-04T20:43:22.674Z,5.40
2022-09-04T20:51:22.698Z,7.60
2022-09-04T20:52:49.569Z,4.80
2022-09-04T20:54:11.938Z,6.80
2022-09-04T21:01:13.685Z,6.80
2022-09-04T21:03:18.178Z,6.20
2022-09-04T21:04:50.504Z,6.50
2022-09-04T21:08:02.681Z,6.60
2022-09-04T21:11:38.775Z,7.27
2022-09-04T21:14:45.971Z,5.23
2022-09-04T21:18:29.282Z,7.20
2022-09-04T21:21:46.281Z,4.73
2022-09-04T21:25:20.216Z,5.07
2022-09-04T21:28:31.300Z,6.73
2022-09-04T21:32:05.882Z,4.73
2022-09-04T21:35:13.481Z,8.50
2022-09-04T21:38:24.827Z,7.70
2022-09-04T21:41:47.797Z,15.73
2022-09-04T21:45:06.697Z,8.77
2022-09-04T21:48:17.806Z,8.10
2022-09-04T21:51:52.477Z,5.63
2022-09-04T21:57:02.753Z,8.93
2022-09-04T22:02:29.650Z,4.50
2022-09-04T22:02:51.355Z,5.23
2022-09-04T22:06:03.749Z,5.53
2022-09-04T22:13:32.291Z,5.70
2022-09-04T22:13:40.555Z,6.27
2022-09-04T22:16:37.020Z,4.50
2022-09-04T22:20:16.537Z,5.13
2022-09-04T22:23:52.561Z,7.13
2022-09-04T22:27:13.091Z,6.60
2022-09-04T22:30:20.046Z,6.30
2022-09-04T22:33:35.898Z,6.90
2022-09-04T22:37:27.241Z,5.53
2022-09-04T22:40:56.239Z,8.53
2022-09-04T22:44:34.235Z,6.33
2022-09-04T22:48:03.249Z,8.03
2022-09-04T22:51:26.046Z,6.40
2022-09-04T22:55:23.018Z,7.30
2022-09-04T22:58:56.109Z,6.37
2022-09-04T23:03:06.620Z,6.47
2022-09-04T23:06:50.955Z,6.30
2022-09-04T23:13:51.283Z,6.80
2022-09-04T23:13:52.520Z,7.23
2022-09-04T23:17:20.296Z,8.83
2022-09-04T23:26:33.668Z,7.47
2022-09-04T23:26:58.433Z,6.97
2022-09-04T23:28:23.095Z,6.70
2022-09-04T23:32:07.372Z,7.40
2022-09-04T23:35:46.000Z,8.13
2022-09-04T23:39:16.777Z,6.93
2022-09-04T23:42:32.473Z,7.77
2022-09-04T23:45:53.851Z,5.80
2022-09-04T23:49:24.512Z,5.80
2022-09-04T23:53:04.059Z,5.70
2022-09-04T23:56:24.404Z,7.70
